Time;durP1;ratioP1;P1;durP2;ratioP2;P2;SDS_P1;SDS_P2;PMS_P1;PMS_P2;Temp;Humidity;BMP_temperature;BMP_pressure;BME280_temperature;BME280_humidity;BME280_pressure;Samples;Min_cycle;Max_cycle;Signal;HPM_P1;HPM_P2
2023/09/29 00:00:34;;;;;;;89.30;39.30;;;18.70;99.90;;;;;;4959364;28;20222;-77
2023/09/29 00:03:00;;;;;;;84.07;30.97;;;18.70;99.90;;;;;;4976501;28;20431;-77
2023/09/29 00:05:27;;;;;;;82.37;31.77;;;18.70;99.90;;;;;;4959216;28;20423;-77
2023/09/29 00:07:54;;;;;;;81.50;34.90;;;18.80;99.90;;;;;;4977026;28;20416;-77
2023/09/29 00:10:21;;;;;;;85.13;35.07;;;18.70;99.90;;;;;;4959082;28;20422;-77
2023/09/29 00:12:51;;;;;;;83.13;33.43;;;18.70;99.90;;;;;;4976398;28;20431;-77
2023/09/29 00:15:18;;;;;;;82.30;31.57;;;18.70;99.90;;;;;;4976589;28;20559;-77
2023/09/29 00:17:44;;;;;;;81.50;32.60;;;18.60;99.90;;;;;;4958934;28;20419;-77
2023/09/29 00:20:18;;;;;;;82.03;33.63;;;18.70;99.90;;;;;;4976600;28;20502;-77
2023/09/29 00:22:44;;;;;;;86.30;34.23;;;18.60;99.90;;;;;;4958751;28;20435;-77
2023/09/29 00:25:10;;;;;;;84.80;35.90;;;18.70;99.90;;;;;;4976213;28;20947;-77
2023/09/29 00:27:36;;;;;;;83.33;39.33;;;18.70;99.90;;;;;;4958862;28;20605;-77
2023/09/29 00:30:05;;;;;;;87.13;39.17;;;18.60;99.90;;;;;;4958785;28;20182;-77
2023/09/29 00:32:31;;;;;;;82.83;34.90;;;18.60;99.90;;;;;;4959303;28;20235;-77
2023/09/29 00:34:57;;;;;;;83.83;35.93;;;18.60;99.90;;;;;;4976227;28;20455;-77
2023/09/29 00:37:25;;;;;;;86.30;36.90;;;18.60;99.90;;;;;;4958627;28;20407;-77
2023/09/29 00:39:52;;;;;;;83.57;35.27;;;18.60;99.90;;;;;;4958526;28;20445;-77
2023/09/29 00:42:18;;;;;;;80.83;35.80;;;18.60;99.90;;;;;;4975937;28;20427;-77
2023/09/29 00:44:44;;;;;;;87.70;35.27;;;18.60;99.90;;;;;;4976127;28;20415;-77
2023/09/29 00:47:11;;;;;;;82.40;33.90;;;18.60;99.90;;;;;;4976037;28;20789;-77
2023/09/29 00:49:37;;;;;;;84.60;33.50;;;18.50;99.90;;;;;;4958433;28;20415;-77
2023/09/29 00:52:04;;;;;;;87.23;33.37;;;18.60;99.90;;;;;;4958212;28;20805;-77
2023/09/29 00:54:34;;;;;;;81.97;35.00;;;18.60;99.90;;;;;;4976688;28;20482;-77
2023/09/29 00:57:00;;;;;;;81.50;32.30;;;18.50;99.90;;;;;;4975608;28;20403;-77
2023/09/29 00:59:31;;;;;;;84.10;35.93;;;18.50;99.90;;;;;;4975800;28;20474;-76
2023/09/29 01:01:57;;;;;;;81.70;33.07;;;18.50;99.90;;;;;;4958213;28;20940;-77
2023/09/29 01:04:23;;;;;;;85.00;37.47;;;18.40;99.90;;;;;;4975346;28;20515;-77
2023/09/29 01:06:50;;;;;;;84.43;35.50;;;18.50;99.90;;;;;;4975431;28;20415;-77
2023/09/29 01:09:16;;;;;;;85.17;38.93;;;18.40;99.90;;;;;;4975321;28;20415;-77
2023/09/29 01:11:44;;;;;;;84.63;41.93;;;18.40;99.90;;;;;;4975244;28;20828;-76
2023/09/29 01:14:13;;;;;;;84.37;38.00;;;18.30;99.90;;;;;;4958128;28;20448;-77
2023/09/29 01:16:41;;;;;;;87.57;49.30;;;18.30;99.90;;;;;;4957864;28;20419;-77
2023/09/29 01:19:11;;;;;;;86.67;46.43;;;18.30;99.90;;;;;;4957848;28;20412;-77
2023/09/29 01:21:39;;;;;;;84.07;42.63;;;18.30;99.90;;;;;;4957725;28;20442;-77
2023/09/29 01:24:07;;;;;;;87.00;48.03;;;18.30;99.90;;;;;;4974992;28;20494;-77
2023/09/29 01:26:32;;;;;;;88.77;50.53;;;18.30;99.90;;;;;;4957768;28;20458;-77
2023/09/29 01:28:58;;;;;;;88.87;45.67;;;18.30;99.90;;;;;;4975063;28;20411;-76
2023/09/29 01:31:24;;;;;;;87.17;44.60;;;18.30;99.90;;;;;;4975155;28;20434;-77
2023/09/29 01:33:50;;;;;;;87.20;43.77;;;18.30;99.90;;;;;;4957527;28;20642;-76
2023/09/29 01:36:16;;;;;;;84.00;40.53;;;18.30;99.90;;;;;;4974866;28;20172;-76
2023/09/29 01:38:42;;;;;;;88.00;44.03;;;18.30;99.90;;;;;;4975133;28;20176;-76
2023/09/29 01:41:08;;;;;;;84.47;42.07;;;18.30;99.90;;;;;;4957411;28;20453;-77
2023/09/29 01:43:34;;;;;;;86.67;42.63;;;18.30;99.90;;;;;;4957461;28;20172;-76
2023/09/29 01:46:01;;;;;;;81.97;37.03;;;18.30;99.90;;;;;;4957521;28;20410;-77
2023/09/29 01:48:26;;;;;;;85.77;41.00;;;18.30;99.90;;;;;;4957336;28;21047;-77
2023/09/29 01:50:52;;;;;;;89.30;44.40;;;18.30;99.90;;;;;;4974680;28;20443;-77
2023/09/29 01:53:18;;;;;;;84.40;43.80;;;18.30;99.90;;;;;;4957273;28;20192;-77
2023/09/29 01:55:43;;;;;;;86.17;43.50;;;18.30;99.90;;;;;;4957301;28;20179;-76
2023/09/29 01:58:09;;;;;;;84.90;42.83;;;18.30;99.90;;;;;;4958221;28;20176;-77
2023/09/29 02:00:35;;;;;;;90.77;41.83;;;18.30;99.90;;;;;;4974487;28;20171;-76
2023/09/29 02:03:05;;;;;;;83.00;39.67;;;18.30;99.90;;;;;;4974472;28;20196;-77
2023/09/29 02:05:30;;;;;;;82.17;37.30;;;18.30;99.90;;;;;;4974455;28;20172;-77
2023/09/29 02:08:02;;;;;;;81.70;39.10;;;18.30;99.90;;;;;;4974455;28;20499;-76
2023/09/29 02:10:30;;;;;;;89.80;37.53;;;18.30;99.90;;;;;;4957067;28;20172;-76
2023/09/29 02:12:58;;;;;;;81.57;35.93;;;18.30;99.90;;;;;;4974392;28;20536;-77
2023/09/29 02:15:25;;;;;;;82.87;37.20;;;18.40;99.90;;;;;;4956943;28;20462;-77
2023/09/29 02:17:50;;;;;;;82.33;37.37;;;18.30;99.90;;;;;;4974066;28;20415;-77
2023/09/29 02:20:18;;;;;;;80.43;35.73;;;18.30;99.90;;;;;;4956969;28;20808;-77
2023/09/29 02:22:45;;;;;;;90.97;40.83;;;18.30;99.90;;;;;;4974265;28;20573;-77
2023/09/29 02:25:11;;;;;;;84.20;33.93;;;18.20;99.90;;;;;;4974510;28;20423;-76
2023/09/29 02:27:38;;;;;;;85.30;44.13;;;18.20;99.90;;;;;;4956877;28;20423;-76
2023/09/29 02:30:04;;;;;;;83.27;37.70;;;18.10;99.90;;;;;;4974185;28;20411;-77
2023/09/29 02:32:30;;;;;;;82.63;38.57;;;18.20;99.90;;;;;;4956763;28;20454;-77
2023/09/29 02:34:56;;;;;;;83.10;36.70;;;18.20;99.90;;;;;;4974375;28;20451;-76
2023/09/29 02:37:22;;;;;;;84.57;39.57;;;18.10;99.90;;;;;;4957112;28;20164;-77
2023/09/29 02:39:47;;;;;;;91.00;42.53;;;18.20;99.90;;;;;;4956794;28;20172;-77
2023/09/29 02:42:13;;;;;;;87.00;43.77;;;18.10;99.90;;;;;;4956674;28;20434;-77
2023/09/29 02:44:39;;;;;;;83.40;39.27;;;18.10;99.90;;;;;;4956716;28;20230;-76
2023/09/29 02:47:06;;;;;;;88.63;38.60;;;18.10;99.90;;;;;;4956763;28;20234;-77
2023/09/29 02:49:33;;;;;;;89.03;37.30;;;18.10;99.90;;;;;;4974040;28;20443;-77
2023/09/29 02:52:04;;;;;;;84.33;37.00;;;18.10;99.90;;;;;;4956668;28;20498;-77
2023/09/29 02:54:30;;;;;;;82.80;36.03;;;18.10;99.90;;;;;;4956664;28;20450;-77
2023/09/29 02:56:56;;;;;;;89.60;38.37;;;18.10;99.90;;;;;;4956678;28;20423;-76
2023/09/29 02:59:24;;;;;;;80.83;31.80;;;18.10;99.90;;;;;;4973994;28;20407;-76
2023/09/29 03:01:50;;;;;;;80.90;28.60;;;18.20;99.90;;;;;;4974157;28;20508;-77
2023/09/29 03:04:16;;;;;;;81.50;30.40;;;18.20;99.90;;;;;;4956509;28;20474;-77
2023/09/29 03:06:41;;;;;;;80.13;27.40;;;18.20;99.90;;;;;;4974454;28;20407;-76
2023/09/29 03:09:10;;;;;;;81.13;28.80;;;18.20;99.90;;;;;;4974401;28;20176;-77
2023/09/29 03:11:39;;;;;;;83.57;34.13;;;18.20;99.90;;;;;;4974059;28;20652;-77
2023/09/29 03:14:06;;;;;;;84.07;31.50;;;18.10;99.90;;;;;;4973742;28;20447;-77
2023/09/29 03:16:35;;;;;;;79.87;31.03;;;18.10;99.90;;;;;;4957004;28;20418;-77
2023/09/29 03:19:03;;;;;;;81.60;30.67;;;18.10;99.90;;;;;;4973769;28;20411;-77
2023/09/29 03:21:29;;;;;;;83.60;29.90;;;18.10;99.90;;;;;;4974079;28;20515;-77
2023/09/29 03:24:12;;;;;;;78.97;31.47;;;18.10;99.90;;;;;;4956274;28;20439;-77
2023/09/29 03:26:38;;;;;;;84.77;31.10;;;18.10;99.90;;;;;;4956411;28;20180;-77
2023/09/29 03:29:04;;;;;;;78.17;28.43;;;18.10;99.90;;;;;;4977154;28;20419;-77
2023/09/29 03:31:30;;;;;;;81.40;32.03;;;18.10;99.90;;;;;;4959824;28;20199;-77
2023/09/29 03:33:55;;;;;;;81.70;31.80;;;18.10;99.90;;;;;;4977095;28;20290;-77
2023/09/29 03:36:21;;;;;;;85.33;30.17;;;18.10;99.90;;;;;;4977359;28;20498;-77
2023/09/29 03:38:47;;;;;;;82.77;33.63;;;18.10;99.90;;;;;;4960019;28;20172;-77
2023/09/29 03:41:13;;;;;;;80.70;31.40;;;18.10;99.90;;;;;;4959590;28;20227;-77
2023/09/29 03:43:40;;;;;;;79.20;29.23;;;18.10;99.90;;;;;;4959637;28;20182;-77
2023/09/29 03:46:06;;;;;;;81.50;28.50;;;18.10;99.90;;;;;;4959606;28;20419;-77
2023/09/29 03:48:32;;;;;;;80.03;30.10;;;18.10;99.90;;;;;;4959495;28;20936;-77
2023/09/29 03:50:58;;;;;;;80.03;27.00;;;18.10;99.90;;;;;;4959559;28;20454;-77
2023/09/29 03:53:28;;;;;;;79.47;26.37;;;18.10;99.90;;;;;;4976682;28;20180;-77
2023/09/29 03:55:56;;;;;;;81.37;30.80;;;18.10;99.90;;;;;;4977012;28;20392;-77
2023/09/29 03:58:24;;;;;;;85.50;27.43;;;18.10;99.90;;;;;;4977012;28;20905;-77
2023/09/29 04:00:50;;;;;;;81.03;28.10;;;18.10;99.90;;;;;;4959374;28;20838;-77
2023/09/29 04:03:16;;;;;;;81.57;26.80;;;18.10;99.90;;;;;;4976513;28;20435;-77
2023/09/29 04:05:42;;;;;;;80.37;28.30;;;18.10;99.90;;;;;;4976545;28;20203;-77
2023/09/29 04:08:08;;;;;;;78.17;26.17;;;18.10;99.90;;;;;;4976563;28;20455;-77
2023/09/29 04:10:34;;;;;;;80.80;23.53;;;18.10;99.90;;;;;;4976456;28;20404;-77
2023/09/29 04:13:00;;;;;;;79.07;25.83;;;18.10;99.90;;;;;;4959272;28;20681;-77
2023/09/29 04:15:27;;;;;;;79.53;22.30;;;18.20;99.90;;;;;;4976556;28;20192;-76
2023/09/29 04:17:52;;;;;;;75.93;21.23;;;18.20;99.90;;;;;;4976377;28;20168;-76
2023/09/29 04:20:18;;;;;;;80.03;21.43;;;18.10;99.90;;;;;;4976357;28;20494;-77
2023/09/29 04:22:46;;;;;;;78.17;23.57;;;18.10;99.90;;;;;;4976264;28;20188;-77
2023/09/29 04:25:12;;;;;;;81.87;24.53;;;18.10;99.90;;;;;;4976104;28;20569;-77
2023/09/29 04:27:39;;;;;;;80.50;23.90;;;18.00;99.90;;;;;;4958931;28;20431;-77
2023/09/29 04:30:06;;;;;;;80.87;22.63;;;18.10;99.90;;;;;;4976044;28;20178;-77
2023/09/29 04:32:32;;;;;;;79.03;20.90;;;18.10;99.90;;;;;;4958573;28;20475;-77
2023/09/29 04:34:58;;;;;;;80.77;22.73;;;18.10;99.90;;;;;;4975750;28;20816;-77
2023/09/29 04:37:23;;;;;;;78.27;23.27;;;18.10;99.90;;;;;;4958508;28;20419;-76
2023/09/29 04:39:49;;;;;;;79.10;22.47;;;18.10;99.90;;;;;;4958048;28;20172;-76
2023/09/29 04:42:15;;;;;;;81.50;23.17;;;18.10;99.90;;;;;;4958529;28;20274;-77
2023/09/29 04:44:40;;;;;;;82.10;22.47;;;18.10;99.90;;;;;;4975763;28;20178;-77
2023/09/29 04:47:07;;;;;;;79.37;22.37;;;18.10;99.90;;;;;;4958454;28;20250;-77
2023/09/29 04:49:33;;;;;;;78.13;23.63;;;18.10;99.90;;;;;;4958646;28;20184;-77
2023/09/29 04:51:58;;;;;;;81.67;20.17;;;18.10;99.90;;;;;;4975613;28;20466;-77
2023/09/29 04:54:24;;;;;;;87.00;21.53;;;18.20;99.90;;;;;;4975641;28;20941;-76
2023/09/29 04:56:50;;;;;;;89.30;22.57;;;18.20;99.90;;;;;;4975575;28;20176;-77
2023/09/29 04:59:15;;;;;;;86.70;24.37;;;18.20;99.90;;;;;;4958253;28;20172;-76
2023/09/29 05:01:41;;;;;;;81.37;24.10;;;18.10;99.90;;;;;;4975668;28;20188;-76
2023/09/29 05:04:07;;;;;;;85.60;27.70;;;18.10;99.90;;;;;;4975488;28;20178;-76
2023/09/29 05:06:32;;;;;;;80.63;23.63;;;18.10;99.90;;;;;;4975418;28;20176;-77
2023/09/29 05:08:59;;;;;;;81.10;26.30;;;18.10;99.90;;;;;;4958306;28;20550;-76
2023/09/29 05:11:27;;;;;;;87.23;26.17;;;18.10;99.90;;;;;;4975304;28;20171;-76
2023/09/29 05:13:54;;;;;;;82.57;30.30;;;18.10;99.90;;;;;;4957797;28;20454;-76
2023/09/29 05:16:21;;;;;;;84.60;26.63;;;18.10;99.90;;;;;;4957896;28;20514;-77
2023/09/29 05:18:47;;;;;;;79.77;28.40;;;18.10;99.90;;;;;;4975289;28;20772;-77
2023/09/29 05:21:14;;;;;;;81.33;27.07;;;18.20;99.90;;;;;;4975414;28;20407;-77
2023/09/29 05:23:45;;;;;;;79.07;20.50;;;18.20;99.90;;;;;;4941951;28;20411;-76
2023/09/29 05:26:10;;;;;;;78.37;22.97;;;18.20;99.90;;;;;;4975418;28;20395;-77
2023/09/29 05:28:39;;;;;;;83.10;21.00;;;18.20;99.90;;;;;;4957789;28;20840;-77
2023/09/29 05:31:05;;;;;;;78.57;23.10;;;18.20;99.90;;;;;;4975228;28;20193;-77
2023/09/29 05:33:31;;;;;;;84.03;24.33;;;18.10;99.90;;;;;;4957457;28;20450;-77
2023/09/29 05:36:05;;;;;;;79.87;27.20;;;18.10;99.90;;;;;;4957619;28;20176;-77
2023/09/29 05:38:33;;;;;;;81.67;27.47;;;18.10;99.90;;;;;;4974918;28;20396;-77
2023/09/29 05:40:59;;;;;;;79.30;28.30;;;18.10;99.90;;;;;;4957528;28;20497;-77
2023/09/29 05:43:26;;;;;;;81.53;27.30;;;18.10;99.90;;;;;;4974795;28;20458;-77
2023/09/29 05:45:54;;;;;;;85.03;27.40;;;18.10;99.90;;;;;;4941831;28;20179;-77
2023/09/29 05:48:20;;;;;;;77.87;28.10;;;18.10;99.90;;;;;;4957994;28;20416;-77
2023/09/29 05:50:45;;;;;;;81.17;27.97;;;18.20;99.90;;;;;;4973916;28;21020;-77
2023/09/29 05:53:12;;;;;;;82.00;33.13;;;18.10;99.90;;;;;;4974629;28;20235;-77
2023/09/29 05:55:38;;;;;;;80.27;31.00;;;18.10;99.90;;;;;;4957235;28;20196;-76
2023/09/29 05:58:04;;;;;;;83.50;36.70;;;18.20;99.90;;;;;;4957260;28;20515;-77
2023/09/29 06:00:30;;;;;;;81.53;30.07;;;18.10;99.90;;;;;;4974503;28;20407;-76
2023/09/29 06:02:56;;;;;;;82.80;28.33;;;18.20;99.90;;;;;;4974942;28;20430;-76
2023/09/29 06:05:21;;;;;;;79.87;26.20;;;18.20;99.90;;;;;;4958026;28;20423;-77
2023/09/29 06:07:47;;;;;;;79.80;25.93;;;18.30;99.90;;;;;;4974472;28;20175;-76
2023/09/29 06:10:13;;;;;;;81.00;24.43;;;18.30;99.90;;;;;;4974503;28;20172;-77
2023/09/29 06:12:39;;;;;;;77.97;27.53;;;18.40;99.90;;;;;;4974355;28;20500;-77
2023/09/29 06:15:06;;;;;;;78.70;27.87;;;18.40;99.90;;;;;;4974241;28;20443;-77
2023/09/29 06:17:39;;;;;;;84.40;28.13;;;18.50;99.90;;;;;;4974408;28;20407;-77
2023/09/29 06:20:05;;;;;;;80.70;26.47;;;18.50;99.90;;;;;;4957602;28;20762;-77
2023/09/29 06:22:31;;;;;;;77.00;22.43;;;18.60;99.90;;;;;;4956813;28;20443;-77
2023/09/29 06:24:56;;;;;;;82.27;27.37;;;18.60;99.90;;;;;;4974244;28;20589;-76
2023/09/29 06:27:23;;;;;;;81.30;27.60;;;18.70;99.90;;;;;;4974261;28;20168;-77
2023/09/29 06:29:50;;;;;;;84.40;27.63;;;18.70;99.90;;;;;;4956900;28;20219;-77
2023/09/29 06:32:16;;;;;;;83.20;27.57;;;18.70;99.90;;;;;;4974125;28;20431;-77
2023/09/29 06:34:42;;;;;;;78.43;24.17;;;18.80;99.90;;;;;;4974690;28;20523;-77
2023/09/29 06:37:09;;;;;;;78.17;24.00;;;18.80;99.90;;;;;;4974215;28;20407;-77
2023/09/29 06:39:37;;;;;;;79.07;20.00;;;18.80;99.90;;;;;;4956897;28;20249;-76
2023/09/29 06:42:04;;;;;;;80.10;21.70;;;18.80;99.90;;;;;;4956678;28;20879;-77
2023/09/29 06:44:32;;;;;;;76.37;21.10;;;18.80;99.90;;;;;;4956796;28;20411;-77
2023/09/29 06:46:58;;;;;;;79.60;19.73;;;18.90;99.90;;;;;;4957391;28;20495;-77
2023/09/29 06:49:23;;;;;;;75.60;20.90;;;18.90;99.90;;;;;;4974019;28;20515;-77
2023/09/29 06:51:49;;;;;;;81.83;24.40;;;18.90;99.90;;;;;;4956643;28;20573;-76
2023/09/29 06:54:15;;;;;;;75.83;20.33;;;18.90;99.90;;;;;;4973915;28;20581;-77
2023/09/29 06:56:41;;;;;;;74.77;19.93;;;18.90;99.90;;;;;;4956696;28;20222;-77
2023/09/29 06:59:07;;;;;;;77.80;21.77;;;18.90;99.90;;;;;;4974010;28;20164;-77
2023/09/29 07:01:33;;;;;;;74.30;18.20;;;19.00;99.90;;;;;;4956469;28;20192;-77
2023/09/29 07:03:59;;;;;;;77.80;21.47;;;19.10;99.90;;;;;;4977369;28;20979;-77
2023/09/29 07:06:25;;;;;;;78.17;20.40;;;19.10;99.90;;;;;;4960240;28;20411;-76
2023/09/29 07:08:54;;;;;;;76.20;21.03;;;19.10;99.90;;;;;;4960295;28;20676;-77
2023/09/29 07:11:20;;;;;;;77.13;20.47;;;19.20;99.90;;;;;;4977531;28;20750;-77
2023/09/29 07:13:45;;;;;;;74.77;21.27;;;19.30;99.90;;;;;;4977766;28;20418;-77
2023/09/29 07:16:11;;;;;;;80.27;22.90;;;19.30;99.90;;;;;;4960180;28;20168;-77
2023/09/29 07:18:37;;;;;;;78.97;19.23;;;19.30;99.90;;;;;;4977462;28;20164;-76
2023/09/29 07:21:02;;;;;;;77.90;21.00;;;19.40;99.90;;;;;;4977809;28;20641;-77
2023/09/29 07:23:30;;;;;;;77.53;24.73;;;19.50;99.90;;;;;;4977701;28;20665;-76
2023/09/29 07:25:56;;;;;;;80.57;23.80;;;19.70;99.90;;;;;;4977727;28;20263;-76
2023/09/29 07:28:22;;;;;;;77.47;25.30;;;19.80;99.90;;;;;;4960101;28;20964;-77
2023/09/29 07:30:50;;;;;;;76.53;25.70;;;19.90;99.90;;;;;;4977309;28;20164;-77
2023/09/29 07:33:16;;;;;;;82.83;21.40;;;20.00;99.90;;;;;;4960080;28;20438;-76
2023/09/29 07:35:44;;;;;;;79.40;24.33;;;20.20;99.90;;;;;;4977122;28;20446;-76
2023/09/29 07:38:10;;;;;;;79.20;26.47;;;20.20;99.90;;;;;;4960196;28;20265;-77
2023/09/29 07:40:39;;;;;;;76.40;24.00;;;20.30;99.90;;;;;;4959792;28;20443;-77
2023/09/29 07:43:05;;;;;;;80.83;28.87;;;20.30;99.90;;;;;;4959594;28;20427;-77
2023/09/29 07:45:34;;;;;;;79.90;31.37;;;20.40;99.90;;;;;;4959593;28;20426;-77
2023/09/29 07:48:00;;;;;;;82.63;36.40;;;20.40;99.90;;;;;;4959620;28;20503;-77
2023/09/29 07:50:26;;;;;;;79.00;30.53;;;20.40;99.90;;;;;;4959653;28;20411;-77
2023/09/29 07:52:52;;;;;;;80.40;34.47;;;20.50;99.90;;;;;;4976944;28;20424;-77
2023/09/29 07:55:18;;;;;;;83.63;36.57;;;20.60;99.90;;;;;;4959486;28;20210;-77
2023/09/29 07:57:44;;;;;;;81.53;34.40;;;20.70;99.90;;;;;;4959485;28;20415;-77
2023/09/29 08:00:11;;;;;;;80.13;29.37;;;20.70;99.90;;;;;;4976810;28;20812;-77
2023/09/29 08:02:37;;;;;;;78.37;26.87;;;20.80;99.90;;;;;;4959377;28;20677;-77
2023/09/29 08:05:03;;;;;;;79.17;26.03;;;20.90;99.90;;;;;;4959390;28;20426;-77
2023/09/29 08:07:29;;;;;;;76.07;27.73;;;20.90;99.90;;;;;;4977256;28;20514;-77
2023/09/29 08:09:55;;;;;;;82.10;23.77;;;20.90;99.90;;;;;;4959232;28;20407;-77
2023/09/29 08:12:21;;;;;;;77.10;26.43;;;21.00;99.90;;;;;;4959018;28;20207;-77
2023/09/29 08:14:47;;;;;;;77.07;22.70;;;21.00;99.90;;;;;;4958171;28;20279;-77
2023/09/29 08:17:13;;;;;;;81.10;26.30;;;21.00;99.90;;;;;;4976681;28;20531;-77
2023/09/29 08:19:42;;;;;;;75.00;20.17;;;21.00;99.90;;;;;;4976706;28;20900;-77
2023/09/29 08:22:12;;;;;;;73.27;17.37;;;21.00;99.90;;;;;;4976311;28;20558;-77
2023/09/29 08:24:39;;;;;;;75.47;16.77;;;21.10;99.90;;;;;;4958831;28;20427;-77
2023/09/29 08:27:06;;;;;;;73.23;15.77;;;21.10;99.90;;;;;;4976253;28;20407;-77
2023/09/29 08:29:32;;;;;;;71.50;9.97;;;21.10;99.90;;;;;;4976482;28;20411;-76
2023/09/29 08:32:00;;;;;;;72.57;10.03;;;21.20;99.90;;;;;;4958749;28;20431;-77
2023/09/29 08:34:28;;;;;;;70.27;8.50;;;21.20;99.90;;;;;;4976074;28;20442;-77
2023/09/29 08:36:54;;;;;;;72.27;9.13;;;21.20;99.90;;;;;;4976322;28;20411;-77
2023/09/29 08:39:20;;;;;;;71.43;8.87;;;21.30;99.90;;;;;;4976172;28;20487;-76
2023/09/29 08:41:56;;;;;;;71.53;8.30;;;21.30;99.90;;;;;;4958682;28;20695;-77
2023/09/29 08:44:27;;;;;;;70.57;7.07;;;21.30;99.90;;;;;;4958660;28;20427;-77
2023/09/29 08:46:53;;;;;;;76.57;7.40;;;21.30;99.90;;;;;;4958584;28;20407;-77
2023/09/29 08:49:20;;;;;;;72.50;7.73;;;21.50;99.90;;;;;;4976199;28;20431;-77
2023/09/29 08:51:47;;;;;;;70.47;6.83;;;21.50;99.90;;;;;;4976528;28;20952;-77
2023/09/29 08:54:14;;;;;;;73.90;8.50;;;21.40;99.90;;;;;;4975690;28;20478;-77
2023/09/29 08:56:40;;;;;;;73.47;8.50;;;21.40;99.90;;;;;;4976455;28;20530;-77
2023/09/29 08:59:06;;;;;;;76.63;10.03;;;21.40;99.90;;;;;;4958323;28;20514;-77
2023/09/29 09:01:32;;;;;;;73.27;8.20;;;21.50;99.90;;;;;;4975593;28;20662;-77
2023/09/29 09:03:58;;;;;;;72.40;7.83;;;21.60;99.90;;;;;;4975605;28;20453;-77
2023/09/29 09:06:26;;;;;;;72.70;10.33;;;21.60;99.90;;;;;;4975751;28;20776;-77
2023/09/29 09:08:53;;;;;;;71.40;7.03;;;21.70;99.90;;;;;;4975667;28;20403;-77
2023/09/29 09:11:23;;;;;;;74.53;9.50;;;21.90;99.90;;;;;;4975539;28;20555;-77
2023/09/29 09:14:04;;;;;;;74.37;10.87;;;22.10;99.90;;;;;;4975343;28;20403;-77
2023/09/29 09:16:36;;;;;;;72.60;10.80;;;22.20;99.90;;;;;;4958224;28;20400;-77
2023/09/29 09:19:13;;;;;;;71.70;10.33;;;22.30;99.90;;;;;;4958091;28;20408;-77
2023/09/29 09:21:40;;;;;;;72.23;9.33;;;22.30;99.90;;;;;;4957935;28;20509;-77
2023/09/29 09:24:20;;;;;;;72.60;9.70;;;22.50;99.90;;;;;;4975228;28;20432;-77
2023/09/29 09:26:46;;;;;;;73.37;8.70;;;22.60;99.90;;;;;;4975012;28;20458;-76
2023/09/29 09:29:15;;;;;;;72.63;7.93;;;22.80;99.90;;;;;;4975371;28;20407;-76
2023/09/29 09:31:52;;;;;;;73.83;8.17;;;22.90;76.10;;;;;;4975012;28;20423;-77
2023/09/29 09:34:18;;;;;;;71.43;7.93;;;23.10;89.50;;;;;;4975305;28;20423;-77
2023/09/29 09:36:52;;;;;;;77.50;11.73;;;23.40;74.30;;;;;;4975014;28;20418;-77
2023/09/29 09:39:22;;;;;;;73.00;11.40;;;23.70;51.50;;;;;;4957704;28;20585;-77
2023/09/29 09:41:53;;;;;;;72.50;11.50;;;24.00;24.30;;;;;;4975096;28;20477;-76
2023/09/29 09:44:20;;;;;;;70.90;10.20;;;24.10;26.70;;;;;;4957582;28;20423;-77
2023/09/29 09:46:57;;;;;;;77.50;13.20;;;24.10;7.20;;;;;;4974848;28;20399;-77
2023/09/29 09:49:34;;;;;;;72.47;9.17;;;24.20;1.00;;;;;;4975143;28;20943;-77
2023/09/29 09:52:05;;;;;;;70.80;6.33;;;24.30;1.00;;;;;;4957742;28;20427;-78
2023/09/29 09:54:36;;;;;;;69.67;5.00;;;24.30;1.00;;;;;;4976105;28;20865;-77
2023/09/29 09:57:08;;;;;;;71.37;4.40;;;24.20;1.00;;;;;;4975501;28;20419;-78
2023/09/29 09:59:39;;;;;;;71.47;4.60;;;24.10;1.00;;;;;;4975186;28;20892;-78
2023/09/29 10:02:07;;;;;;;71.10;4.60;;;24.00;1.00;;;;;;4975731;28;20415;-78
2023/09/29 10:04:36;;;;;;;71.70;4.30;;;24.00;1.00;;;;;;4958465;28;20825;-77
2023/09/29 10:07:04;;;;;;;70.17;4.60;;;24.00;1.00;;;;;;4958324;28;20422;-78
2023/09/29 10:09:41;;;;;;;70.73;4.40;;;24.20;1.00;;;;;;4975575;28;20412;-77
2023/09/29 10:12:07;;;;;;;70.60;5.87;;;24.30;1.00;;;;;;4975871;28;20422;-77
2023/09/29 10:14:44;;;;;;;79.57;5.40;;;24.20;1.00;;;;;;4963548;28;21014;-79
2023/09/29 10:17:12;;;;;;;70.17;6.70;;;24.00;1.00;;;;;;4980996;28;20155;-78
2023/09/29 10:19:39;;;;;;;70.70;4.70;;;23.80;1.00;;;;;;4980814;28;20403;-78
2023/09/29 10:22:08;;;;;;;70.13;4.07;;;23.50;1.00;;;;;;4962887;28;20431;-79
2023/09/29 10:24:34;;;;;;;69.90;3.90;;;23.40;1.00;;;;;;4979024;28;20434;-78
2023/09/29 10:27:04;;;;;;;70.20;4.47;;;23.10;1.00;;;;;;4979663;28;20414;-78
2023/09/29 10:29:37;;;;;;;71.00;4.57;;;23.00;1.00;;;;;;4961869;28;20496;-78
2023/09/29 10:32:16;;;;;;;71.13;4.07;;;23.00;1.00;;;;;;4977757;28;20434;-77
2023/09/29 10:34:42;;;;;;;70.63;4.33;;;22.90;1.00;;;;;;4979120;28;20458;-78
2023/09/29 10:37:10;;;;;;;70.57;5.60;;;22.90;1.00;;;;;;4962889;28;20404;-78
2023/09/29 10:39:36;;;;;;;74.67;4.87;;;22.80;1.00;;;;;;4983097;28;20971;-78
2023/09/29 10:42:12;;;;;;;69.87;5.07;;;22.80;1.00;;;;;;4983381;28;20482;-78
2023/09/29 10:44:52;;;;;;;72.67;6.90;;;22.80;1.00;;;;;;4965698;28;20164;-78
2023/09/29 10:47:33;;;;;;;71.80;5.60;;;22.90;1.00;;;;;;4965313;28;20780;-78
2023/09/29 10:50:07;;;;;;;73.90;4.60;;;22.90;1.00;;;;;;4981624;28;20403;-78
2023/09/29 10:52:33;;;;;;;70.97;4.80;;;23.00;1.00;;;;;;4965363;28;20431;-78
2023/09/29 10:54:59;;;;;;;73.67;5.00;;;23.00;1.00;;;;;;4965643;28;20446;-78
2023/09/29 10:57:28;;;;;;;77.07;7.30;;;23.20;1.00;;;;;;4982036;28;20832;-79
2023/09/29 10:59:59;;;;;;;82.63;10.03;;;23.30;1.00;;;;;;4982722;28;20164;-78
2023/09/29 11:02:31;;;;;;;81.50;9.37;;;23.40;1.00;;;;;;4982676;28;20427;-78
2023/09/29 11:04:59;;;;;;;75.57;9.27;;;23.50;1.00;;;;;;4980889;28;20872;-78
2023/09/29 11:07:29;;;;;;;77.00;9.90;;;23.70;1.00;;;;;;4980849;28;20558;-78
2023/09/29 11:09:56;;;;;;;82.17;9.27;;;23.80;1.00;;;;;;4966581;28;20411;-78
2023/09/29 11:12:26;;;;;;;77.77;8.00;;;24.00;1.00;;;;;;4966308;28;20451;-78
2023/09/29 11:14:53;;;;;;;77.47;8.30;;;24.10;1.00;;;;;;4982401;28;20427;-78
2023/09/29 11:17:18;;;;;;;80.67;10.07;;;24.20;1.00;;;;;;4983482;28;20411;-78
2023/09/29 11:19:58;;;;;;;79.77;14.30;;;24.50;1.00;;;;;;4982200;28;20402;-78
2023/09/29 11:22:25;;;;;;;87.57;17.33;;;24.60;1.00;;;;;;4982544;28;20190;-79
2023/09/29 11:24:51;;;;;;;83.00;19.57;;;24.70;1.00;;;;;;4982756;28;20450;-78
2023/09/29 11:27:20;;;;;;;87.00;22.40;;;24.50;1.00;;;;;;4964196;28;20419;-77
2023/09/29 11:29:46;;;;;;;84.67;24.13;;;24.40;1.00;;;;;;4981273;28;20410;-78
2023/09/29 11:32:12;;;;;;;84.43;22.23;;;24.40;1.00;;;;;;4964356;28;20442;-78
2023/09/29 11:34:37;;;;;;;87.17;27.30;;;24.30;1.00;;;;;;4982582;28;20552;-77
2023/09/29 11:37:04;;;;;;;88.07;28.97;;;24.50;1.00;;;;;;4983361;28;20435;-78
2023/09/29 11:39:30;;;;;;;89.07;27.37;;;24.60;1.00;;;;;;4965382;28;20592;-78
2023/09/29 11:41:57;;;;;;;87.60;31.90;;;24.50;1.00;;;;;;4964642;28;20431;-77
2023/09/29 11:44:23;;;;;;;90.67;34.10;;;24.60;1.00;;;;;;4965046;28;20182;-78
2023/09/29 11:46:49;;;;;;;89.57;35.67;;;24.70;1.00;;;;;;4964428;28;20419;-78
2023/09/29 11:49:15;;;;;;;88.37;32.23;;;24.70;1.00;;;;;;4962837;28;20434;-78
2023/09/29 11:51:40;;;;;;;93.40;34.47;;;24.80;1.00;;;;;;4980647;28;20669;-78
2023/09/29 11:54:07;;;;;;;92.97;33.30;;;24.80;1.00;;;;;;4981111;28;20198;-78
2023/09/29 11:56:32;;;;;;;87.40;31.57;;;24.60;1.00;;;;;;4980066;28;20157;-77
2023/09/29 11:58:58;;;;;;;88.53;36.77;;;24.50;1.00;;;;;;4962872;28;20426;-78
2023/09/29 12:01:26;;;;;;;86.53;33.73;;;24.50;1.00;;;;;;4980730;28;20168;-78
2023/09/29 12:03:52;;;;;;;86.30;30.17;;;24.50;1.00;;;;;;4981278;28;20168;-77
2023/09/29 12:06:18;;;;;;;88.47;35.37;;;24.60;1.00;;;;;;4980596;28;20460;-78
2023/09/29 12:08:43;;;;;;;83.90;30.97;;;24.80;1.00;;;;;;4980890;28;20172;-78
2023/09/29 12:11:09;;;;;;;86.73;33.90;;;24.90;1.00;;;;;;4981652;28;20196;-77
2023/09/29 12:13:39;;;;;;;83.10;31.17;;;25.10;1.00;;;;;;4981886;28;20470;-78
2023/09/29 12:16:07;;;;;;;83.47;30.57;;;25.10;1.00;;;;;;4965575;28;20451;-78
2023/09/29 12:18:33;;;;;;;84.70;33.70;;;25.20;1.00;;;;;;4982013;28;20400;-78
2023/09/29 12:21:05;;;;;;;84.07;33.07;;;25.30;1.00;;;;;;4981219;28;20439;-78
2023/09/29 12:23:31;;;;;;;88.60;33.50;;;25.30;1.00;;;;;;4981252;28;20196;-78
2023/09/29 12:25:57;;;;;;;84.50;31.47;;;25.50;1.00;;;;;;4981277;28;20418;-78
2023/09/29 12:28:23;;;;;;;82.67;28.50;;;25.70;1.00;;;;;;4981532;28;20574;-78
2023/09/29 12:30:48;;;;;;;81.87;23.77;;;25.70;1.00;;;;;;4982264;28;20435;-78